Startpagina
METAR-TAF:

METAR-TAF

Vliegvelden :

OR Tambo International Airport

Johannesburg, Zuid-Afrika

breedte: 26-08S, lengte: 028-14E, hoogte: 1694 m

Actueel weer

Dit bericht is 26 minuten geleden gemaakt, om 20:00 UTC
Wind 4 kt uit het westnoordwesten
Temperatuur 15°C
Vochtigheid 44%
Druk 1026 hPa
Zicht 10 km of meer
geen wolken onder 1500 m en geen cumulonimbus

METAR: FAOR 202000Z 30004KT CAVOK 15/03 Q1026 NOSIG

Tijdstip: 22:26 (20:26 UTC)

Verwachting

Dit bericht is 4 uur en het 26 minuten geleden gemaakt, om 16:00 UTC
Verwachting geldig van 20 om 18 UTC tot 21 om 24 UTC
Wind 7 kt uit het westnoordwesten
Zicht 10 km of meer
geen wolken onder 1500 m en geen cumulonimbus
Wijzigt naar
van 20 om 22 UTC tot 20 om 24 UTC
Wind 7 kt uit het zuidzuidwesten
Wijzigt naar
van 21 om 18 UTC tot 21 om 20 UTC
Wind 3 kt uit variabele richting

TAF: FAOR 201600Z 2018/2124 30007KT CAVOK TX22/2113Z TN09/2105Z BECMG 2022/2024 21007KT BECMG 2118/2120 VRB03KT

Waarnemingen en weersverwachtingen van meer dan 4000 vliegvelden (METAR en TAF).

De beschikbare stations zijn de gele en rode punten op de kaart.

Ga met uw muis naar het station om de naam te zien.

Klik dan om waarnemingen en weersverwachtingen te zien.

kaart wijzigen: klik op de groene knoppen met een zwart kruis om in te zoomen, op de groene knop met een streepje om uit te zoomen of op de groene pijlen voor aangrenzende kaarten.


METAR-TAF: